Time;durP1;ratioP1;P1;durP2;ratioP2;P2;SDS_P1;SDS_P2;PMS_P1;PMS_P2;Temp;Humidity;BMP_temperature;BMP_pressure;BME280_temperature;BME280_humidity;BME280_pressure;Samples;Min_cycle;Max_cycle;Signal;HPM_P1;HPM_P2
2023/04/23 00:01:38;;;;;;;22.58;9.73;;;;;;;8.76;90.31;100802.84;4976143;28;97902;-32
2023/04/23 00:04:07;;;;;;;15.90;9.30;;;;;;;8.77;90.21;100801.91;4975343;28;96798;-31
2023/04/23 00:06:32;;;;;;;12.63;7.43;;;;;;;8.74;92.42;100793.94;4976131;28;99308;-30
2023/04/23 00:08:59;;;;;;;17.10;9.73;;;;;;;8.78;91.46;100794.66;4976619;28;97901;-31
2023/04/23 00:11:25;;;;;;;20.80;8.05;;;;;;;8.78;92.61;100791.97;4975196;28;96566;-31
2023/04/23 00:13:51;;;;;;;13.77;7.85;;;;;;;8.79;92.75;100796.41;4976419;28;96800;-32
2023/04/23 00:16:19;;;;;;;15.18;7.97;;;;;;;8.81;92.28;100800.75;4975229;28;98792;-31
2023/04/23 00:18:44;;;;;;;14.23;7.75;;;;;;;8.84;91.49;100787.09;4975987;28;98625;-30
2023/04/23 00:21:10;;;;;;;12.95;6.97;;;;;;;8.87;91.26;100786.06;4976518;28;96490;-30
2023/04/23 00:23:35;;;;;;;12.45;7.10;;;;;;;8.88;92.21;100779.69;4976480;28;96830;-30
2023/04/23 00:26:00;;;;;;;15.30;7.07;;;;;;;8.90;91.47;100778.66;4975793;28;99192;-30
2023/04/23 00:28:26;;;;;;;14.15;8.07;;;;;;;8.95;91.41;100782.94;4975917;28;103706;-31
2023/04/23 00:30:51;;;;;;;14.35;8.30;;;;;;;8.92;90.42;100778.56;4974402;28;96620;-31
2023/04/23 00:33:16;;;;;;;17.15;8.55;;;;;;;8.88;90.63;100775.16;4976029;28;96861;-31
2023/04/23 00:35:42;;;;;;;10.98;7.55;;;;;;;8.90;91.74;100777.78;4975677;28;99647;-31
2023/04/23 00:38:07;;;;;;;13.52;7.68;;;;;;;8.88;91.79;100764.34;4975825;28;101198;-30
2023/04/23 00:40:33;;;;;;;14.07;8.48;;;;;;;8.86;91.08;100760.84;4975428;28;96642;-31
2023/04/23 00:42:59;;;;;;;16.80;8.95;;;;;;;8.87;90.81;100759.06;4976034;28;97738;-31
2023/04/23 00:45:24;;;;;;;14.00;7.47;;;;;;;8.85;91.19;100753.72;4975753;28;97665;-30
2023/04/23 00:47:50;;;;;;;13.60;8.05;;;;;;;8.87;91.87;100757.22;4974963;28;99246;-31
2023/04/23 00:50:15;;;;;;;12.40;7.88;;;;;;;8.83;91.43;100752.94;4975795;28;97454;-30
2023/04/23 00:52:41;;;;;;;13.13;8.32;;;;;;;8.83;92.19;100746.66;4976060;28;96791;-31
2023/04/23 00:55:07;;;;;;;12.95;7.78;;;;;;;8.85;91.69;100747.47;4975559;28;98889;-31
2023/04/23 00:57:35;;;;;;;14.25;8.32;;;;;;;8.88;91.60;100750.84;4974422;28;101001;-30
2023/04/23 01:00:00;;;;;;;12.35;7.88;;;;;;;8.87;91.30;100742.84;4974476;28;96803;-30
2023/04/23 01:02:28;;;;;;;14.13;7.60;;;;;;;8.88;90.97;100742.75;4974448;28;96909;-31
2023/04/23 01:04:54;;;;;;;16.95;8.73;;;;;;;8.92;90.87;100748.84;4974975;28;97966;-30
2023/04/23 01:07:20;;;;;;;12.43;7.05;;;;;;;8.89;91.70;100751.72;4975588;28;97371;-31
2023/04/23 01:09:48;;;;;;;14.70;7.85;;;;;;;8.88;91.05;100745.44;4974258;28;96558;-31
2023/04/23 01:12:14;;;;;;;13.75;7.28;;;;;;;8.86;91.51;100739.25;4974291;28;96899;-30
2023/04/23 01:14:40;;;;;;;13.48;7.88;;;;;;;8.89;91.91;100738.19;4973795;28;101167;-30
2023/04/23 01:17:07;;;;;;;13.77;8.05;;;;;;;8.87;91.50;100732.91;4975248;28;97417;-30
2023/04/23 01:19:33;;;;;;;11.77;7.32;;;;;;;8.85;92.17;100734.81;4974144;28;96705;-30
2023/04/23 01:22:00;;;;;;;14.88;8.07;;;;;;;8.86;91.92;100736.56;4974359;28;96917;-30
2023/04/23 01:24:27;;;;;;;15.80;8.00;;;;;;;8.88;90.81;100737.34;4973799;28;101310;-30
2023/04/23 01:26:53;;;;;;;16.35;8.10;;;;;;;8.88;92.01;100731.94;4973758;28;101053;-30
2023/04/23 01:29:19;;;;;;;15.30;8.32;;;;;;;8.86;92.93;100731.16;4975115;28;96479;-31
2023/04/23 01:31:45;;;;;;;10.88;6.38;;;;;;;8.84;91.39;100729.50;4975315;28;96818;-31
2023/04/23 01:34:12;;;;;;;16.13;7.78;;;;;;;8.86;92.44;100722.19;4973541;28;100816;-31
2023/04/23 01:36:38;;;;;;;14.45;7.32;;;;;;;8.86;92.09;100720.34;4973700;28;100653;-31
2023/04/23 01:39:04;;;;;;;10.45;6.82;;;;;;;8.85;93.99;100724.00;4975518;28;96608;-30
2023/04/23 01:41:30;;;;;;;9.80;6.65;;;;;;;8.87;92.77;100724.81;4974866;28;96763;-30
2023/04/23 01:43:56;;;;;;;14.27;6.90;;;;;;;8.88;92.82;100726.53;4973600;28;100907;-31
2023/04/23 01:46:21;;;;;;;15.75;7.82;;;;;;;8.88;92.65;100729.25;4975367;28;97969;-32
2023/04/23 01:48:47;;;;;;;13.98;6.68;;;;;;;8.90;94.07;100726.47;4975257;28;96435;-30
2023/04/23 01:51:12;;;;;;;14.32;6.85;;;;;;;8.89;93.11;100722.91;4975330;28;96765;-30
2023/04/23 01:53:38;;;;;;;11.50;6.20;;;;;;;8.96;92.46;100727.94;4974441;28;97894;-32
2023/04/23 01:56:04;;;;;;;15.23;6.70;;;;;;;8.95;93.11;100727.06;4974656;28;97834;-30
2023/04/23 01:58:29;;;;;;;11.35;6.05;;;;;;;8.99;92.33;100725.94;4973615;28;96536;-33
2023/04/23 02:00:55;;;;;;;10.15;5.43;;;;;;;8.99;92.69;100725.06;4973990;28;96750;-31
2023/04/23 02:03:20;;;;;;;10.43;5.20;;;;;;;8.98;93.05;100718.78;4974833;28;98092;-31
2023/04/23 02:05:46;;;;;;;11.43;6.35;;;;;;;9.02;91.93;100722.19;4974764;28;97830;-31
2023/04/23 02:08:12;;;;;;;8.40;4.93;;;;;;;9.04;92.59;100717.56;4973563;28;96560;-30
2023/04/23 02:10:37;;;;;;;10.77;5.53;;;;;;;9.01;92.52;100706.91;4975320;28;96760;-31
2023/04/23 02:13:03;;;;;;;12.30;6.82;;;;;;;9.01;91.74;100712.31;4974513;28;99562;-33
2023/04/23 02:15:28;;;;;;;11.27;6.13;;;;;;;9.00;92.48;100708.75;4974677;28;97634;-30
2023/04/23 02:17:54;;;;;;;12.20;5.47;;;;;;;8.99;91.96;100708.88;4974340;28;96536;-30
2023/04/23 02:20:20;;;;;;;9.55;4.97;;;;;;;8.99;92.98;100704.31;4974727;28;96762;-30
2023/04/23 02:22:47;;;;;;;7.40;4.65;;;;;;;8.95;93.72;100700.06;4973054;28;100901;-30
2023/04/23 02:25:16;;;;;;;7.78;5.20;;;;;;;8.97;93.97;100703.53;4972981;28;100914;-31
2023/04/23 02:27:41;;;;;;;7.55;4.97;;;;;;;8.99;93.01;100700.75;4973441;28;96569;-30
2023/04/23 02:30:08;;;;;;;7.15;4.38;;;;;;;9.02;92.79;100711.38;4974932;28;96831;-31
2023/04/23 02:32:35;;;;;;;10.13;5.18;;;;;;;9.03;92.83;100705.00;4972881;28;102171;-30
2023/04/23 02:35:00;;;;;;;10.52;5.70;;;;;;;8.99;92.77;100707.03;4973118;28;100858;-31
2023/04/23 02:37:26;;;;;;;7.38;4.55;;;;;;;9.03;92.95;100708.56;4974509;28;96588;-31
2023/04/23 02:39:52;;;;;;;10.35;5.70;;;;;;;8.99;93.81;100704.31;4974733;28;96770;-30
2023/04/23 02:42:17;;;;;;;7.20;4.93;;;;;;;8.99;93.06;100706.16;4973880;28;97410;-30
2023/04/23 02:44:42;;;;;;;9.88;5.60;;;;;;;8.98;92.52;100709.81;4974390;28;97910;-30
2023/04/23 02:47:07;;;;;;;9.18;4.85;;;;;;;9.00;92.72;100718.69;4974629;28;96572;-30
2023/04/23 02:49:33;;;;;;;9.85;5.97;;;;;;;8.97;92.98;100708.06;4974411;28;96807;-30
2023/04/23 02:51:58;;;;;;;7.80;5.18;;;;;;;9.00;94.04;100707.91;4973996;28;97908;-30
2023/04/23 02:54:24;;;;;;;8.10;4.72;;;;;;;9.01;93.31;100712.31;4974312;28;97729;-30
2023/04/23 02:56:49;;;;;;;9.68;4.60;;;;;;;8.99;94.00;100696.22;4974192;28;96643;-31
2023/04/23 02:59:15;;;;;;;9.23;5.90;;;;;;;9.01;92.61;100698.81;4974957;28;96760;-31
2023/04/23 03:01:40;;;;;;;6.78;4.75;;;;;;;9.01;93.54;100705.13;4974094;28;97926;-30
2023/04/23 03:04:06;;;;;;;7.30;5.10;;;;;;;9.02;93.34;100708.69;4974032;28;99015;-31
2023/04/23 03:06:33;;;;;;;7.10;4.72;;;;;;;9.01;93.78;100702.41;4973932;28;96473;-30
2023/04/23 03:08:58;;;;;;;9.45;5.22;;;;;;;9.00;93.58;100699.78;4972554;28;96788;-30
2023/04/23 03:11:24;;;;;;;7.72;4.95;;;;;;;8.99;93.85;100696.22;4975460;28;98023;-31
2023/04/23 03:13:49;;;;;;;7.28;4.13;;;;;;;8.99;94.71;100698.94;4977332;28;97282;-30
2023/04/23 03:16:14;;;;;;;6.60;4.53;;;;;;;8.96;94.58;100687.41;4977532;28;96577;-30
2023/04/23 03:18:40;;;;;;;8.63;5.25;;;;;;;8.98;93.89;100690.91;4977404;28;96858;-30
2023/04/23 03:21:05;;;;;;;7.30;4.70;;;;;;;9.01;93.99;100693.41;4977288;28;97830;-31
2023/04/23 03:23:30;;;;;;;6.50;4.75;;;;;;;8.99;93.88;100687.25;4977414;28;97319;-31
2023/04/23 03:25:56;;;;;;;10.02;4.70;;;;;;;9.01;94.69;100688.00;4977257;28;96453;-30
2023/04/23 03:28:21;;;;;;;11.45;5.40;;;;;;;8.98;94.16;100680.09;4977319;28;97250;-31
2023/04/23 03:30:47;;;;;;;9.25;5.28;;;;;;;9.01;93.82;100688.00;4976506;28;97893;-31
2023/04/23 03:33:12;;;;;;;9.70;5.45;;;;;;;9.03;93.37;100691.50;4976485;28;96875;-30
2023/04/23 03:35:37;;;;;;;9.15;5.20;;;;;;;9.03;92.59;100694.19;4977256;28;96732;-31
2023/04/23 03:38:03;;;;;;;9.55;5.53;;;;;;;9.02;93.20;100695.19;4977637;28;96797;-31
2023/04/23 03:40:28;;;;;;;10.52;4.75;;;;;;;8.99;93.34;100685.41;4976594;28;97295;-31
2023/04/23 03:42:53;;;;;;;8.35;5.47;;;;;;;8.97;93.94;100681.94;4976684;28;97855;-30
2023/04/23 03:45:19;;;;;;;9.98;5.13;;;;;;;8.96;93.12;100687.41;4977061;28;96586;-31
2023/04/23 03:47:44;;;;;;;8.45;4.80;;;;;;;8.95;94.43;100677.56;4977485;28;96738;-32
2023/04/23 03:50:12;;;;;;;9.65;4.72;;;;;;;8.96;93.84;100690.09;4974974;28;99037;-31
2023/04/23 03:52:37;;;;;;;6.72;4.68;;;;;;;8.97;93.78;100695.44;4976404;28;98999;-32
2023/04/23 03:55:02;;;;;;;8.38;4.80;;;;;;;8.93;94.50;100694.72;4976231;28;96664;-30
2023/04/23 03:57:28;;;;;;;8.10;4.53;;;;;;;8.96;93.52;100693.69;4976972;28;96837;-31
2023/04/23 03:59:53;;;;;;;8.45;4.78;;;;;;;8.94;93.37;100695.63;4976235;28;99370;-30
2023/04/23 04:02:19;;;;;;;6.47;4.47;;;;;;;8.91;94.40;100688.56;4976390;28;97807;-30
2023/04/23 04:04:44;;;;;;;8.85;4.72;;;;;;;8.91;94.72;100687.66;4976921;28;96436;-30
2023/04/23 04:07:11;;;;;;;10.45;5.50;;;;;;;8.91;94.64;100698.47;4976527;28;96784;-30
2023/04/23 04:09:37;;;;;;;9.13;5.32;;;;;;;8.91;94.57;100696.66;4974924;28;101003;-31
2023/04/23 04:12:04;;;;;;;9.23;4.80;;;;;;;8.84;95.75;100689.88;4975221;28;101035;-31
2023/04/23 04:14:30;;;;;;;6.18;3.95;;;;;;;8.86;95.80;100693.34;4975205;28;96646;-31
2023/04/23 04:16:56;;;;;;;6.65;4.60;;;;;;;8.90;95.57;100694.91;4975166;28;96851;-30
2023/04/23 04:19:21;;;;;;;9.27;5.32;;;;;;;8.89;95.14;100687.78;4975526;28;99395;-32
2023/04/23 04:21:47;;;;;;;7.55;5.10;;;;;;;8.89;95.19;100676.97;4975933;28;97313;-30
2023/04/23 04:24:12;;;;;;;8.85;5.40;;;;;;;8.87;94.46;100675.31;4975655;28;96477;-31
2023/04/23 04:26:38;;;;;;;9.82;5.45;;;;;;;8.89;94.82;100685.06;4976221;28;96836;-30
2023/04/23 04:29:04;;;;;;;8.93;5.00;;;;;;;8.85;95.12;100693.44;4976160;28;98418;-31
2023/04/23 04:31:29;;;;;;;8.65;5.50;;;;;;;8.87;95.08;100684.28;4975981;28;97959;-30
2023/04/23 04:33:56;;;;;;;8.70;4.82;;;;;;;8.90;94.73;100686.81;4975561;28;96948;-30
2023/04/23 04:36:24;;;;;;;6.35;4.63;;;;;;;8.85;95.10;100677.25;4975398;28;96813;-30
2023/04/23 04:38:54;;;;;;;6.68;4.05;;;;;;;8.86;94.97;100687.94;4974344;28;100690;-31
2023/04/23 04:41:20;;;;;;;7.80;5.10;;;;;;;8.84;95.63;100687.19;4975771;28;99296;-30
2023/04/23 04:43:47;;;;;;;9.88;5.30;;;;;;;8.81;95.92;100687.31;4974227;28;96574;-30
2023/04/23 04:46:13;;;;;;;7.07;4.47;;;;;;;8.82;95.25;100683.69;4976067;28;96647;-30
2023/04/23 04:48:38;;;;;;;11.40;5.13;;;;;;;8.83;95.18;100680.00;4975826;28;97399;-30
2023/04/23 04:51:03;;;;;;;9.75;4.95;;;;;;;8.80;96.03;100688.31;4974161;28;97747;-30
2023/04/23 04:53:29;;;;;;;10.43;5.00;;;;;;;8.83;95.65;100690.81;4976045;28;96604;-30
2023/04/23 04:55:54;;;;;;;8.80;5.90;;;;;;;8.84;95.66;100692.56;4975944;28;96754;-31
2023/04/23 04:58:20;;;;;;;6.57;4.25;;;;;;;8.85;95.90;100696.13;4975675;28;99384;-31
2023/04/23 05:00:47;;;;;;;9.00;5.68;;;;;;;8.89;94.88;100693.19;4975911;28;97862;-31
2023/04/23 05:03:13;;;;;;;9.38;5.20;;;;;;;8.87;95.89;100697.78;4974307;28;96580;-31
2023/04/23 05:05:38;;;;;;;7.65;4.00;;;;;;;8.90;96.09;100694.91;4975827;28;96741;-30
2023/04/23 05:08:04;;;;;;;7.32;4.40;;;;;;;8.88;95.56;100699.53;4974934;28;99232;-30
2023/04/23 05:10:29;;;;;;;7.40;4.22;;;;;;;8.90;95.88;100697.63;4975434;28;97685;-31
2023/04/23 05:12:58;;;;;;;13.02;5.00;;;;;;;8.91;94.93;100702.06;4975817;28;96598;-31
2023/04/23 05:15:24;;;;;;;8.40;4.72;;;;;;;8.94;95.35;100698.31;4974305;28;96839;-30
2023/04/23 05:17:52;;;;;;;10.52;5.00;;;;;;;8.91;96.36;100699.38;4975415;28;97279;-30
2023/04/23 05:20:17;;;;;;;7.22;4.25;;;;;;;8.94;96.55;100692.91;4973626;28;100901;-30
2023/04/23 05:22:42;;;;;;;5.70;3.72;;;;;;;8.89;96.31;100685.06;4975557;28;96537;-30
2023/04/23 05:25:10;;;;;;;11.73;4.93;;;;;;;8.91;95.96;100685.88;4976137;28;96760;-31
2023/04/23 05:27:36;;;;;;;12.48;5.45;;;;;;;8.93;95.25;100686.63;4975096;28;99439;-30
2023/04/23 05:30:03;;;;;;;8.80;5.05;;;;;;;8.96;95.10;100688.28;4975083;28;97888;-31
2023/04/23 05:32:28;;;;;;;7.07;4.55;;;;;;;8.96;95.03;100687.41;4973563;28;96793;-30
2023/04/23 05:34:54;;;;;;;7.57;4.95;;;;;;;9.02;94.10;100693.34;4974369;28;96831;-30
2023/04/23 05:37:20;;;;;;;9.02;4.13;;;;;;;9.02;94.69;100687.06;4975007;28;99512;-30
2023/04/23 05:39:45;;;;;;;8.23;4.95;;;;;;;9.03;94.92;100681.56;4975062;28;97300;-30
2023/04/23 05:42:12;;;;;;;7.00;4.68;;;;;;;9.10;95.03;100698.28;4975137;28;96712;-30
2023/04/23 05:44:37;;;;;;;7.57;4.30;;;;;;;9.11;95.71;100683.84;4975218;28;96825;-31
2023/04/23 05:47:02;;;;;;;9.80;5.15;;;;;;;9.14;94.64;100684.50;4975036;28;98166;-30
2023/04/23 05:49:28;;;;;;;8.65;4.75;;;;;;;9.17;95.99;100685.31;4974795;28;99078;-31
2023/04/23 05:51:53;;;;;;;7.18;4.43;;;;;;;9.24;95.59;100683.97;4974975;28;96535;-31
2023/04/23 05:54:18;;;;;;;7.85;5.18;;;;;;;9.32;94.34;100685.28;4975068;28;96845;-30
2023/04/23 05:56:44;;;;;;;8.35;4.30;;;;;;;9.34;95.09;100680.66;4974259;28;99364;-30
2023/04/23 05:59:10;;;;;;;6.60;4.05;;;;;;;9.45;94.91;100682.72;4974638;28;99122;-31
2023/04/23 06:01:36;;;;;;;10.32;4.70;;;;;;;9.54;93.83;100681.31;4975182;28;96578;-32
2023/04/23 06:04:01;;;;;;;8.05;5.05;;;;;;;9.60;93.55;100680.91;4974639;28;96813;-30
2023/04/23 06:06:27;;;;;;;6.05;4.00;;;;;;;9.69;94.03;100684.91;4974718;28;97930;-32
2023/04/23 06:08:52;;;;;;;8.32;3.63;;;;;;;9.79;93.30;100681.53;4974678;28;97333;-30
2023/04/23 06:11:18;;;;;;;7.50;3.67;;;;;;;9.82;93.27;100685.03;4975003;28;96540;-30
2023/04/23 06:13:43;;;;;;;6.85;3.78;;;;;;;9.94;93.12;100681.59;4975058;28;96780;-30
2023/04/23 06:16:09;;;;;;;5.20;3.38;;;;;;;10.07;92.19;100678.97;4974714;28;97301;-30
2023/04/23 06:18:36;;;;;;;7.43;3.95;;;;;;;10.12;91.97;100666.88;4974131;28;101215;-30
2023/04/23 06:21:03;;;;;;;8.27;4.38;;;;;;;10.28;91.74;100674.06;4974182;28;96682;-30
2023/04/23 06:23:32;;;;;;;6.57;3.40;;;;;;;10.35;91.37;100670.03;4973383;28;96877;-31
2023/04/23 06:25:57;;;;;;;6.22;4.03;;;;;;;10.43;90.86;100664.13;4973061;28;100982;-31
2023/04/23 06:28:23;;;;;;;5.05;3.22;;;;;;;10.55;90.74;100660.63;4974535;28;97870;-30
2023/04/23 06:30:48;;;;;;;7.60;3.80;;;;;;;10.61;90.42;100649.41;4973240;28;97035;-31
2023/04/23 06:33:14;;;;;;;4.53;2.92;;;;;;;10.74;89.94;100654.88;4974221;28;96915;-31
2023/04/23 06:35:39;;;;;;;7.82;3.13;;;;;;;10.85;89.71;100663.19;4974268;28;99315;-30
2023/04/23 06:38:05;;;;;;;7.30;3.63;;;;;;;10.94;88.86;100643.59;4975007;28;97240;-31
2023/04/23 06:40:31;;;;;;;7.85;3.67;;;;;;;11.10;88.63;100648.84;4974458;28;97352;-30
2023/04/23 06:42:57;;;;;;;9.10;3.58;;;;;;;11.22;88.22;100658.00;4973166;28;96981;-32
2023/04/23 06:45:22;;;;;;;5.38;3.13;;;;;;;11.36;88.29;100651.66;4973874;28;97955;-31
2023/04/23 06:47:48;;;;;;;5.10;2.67;;;;;;;11.43;87.12;100645.69;4977175;28;99294;-30
2023/04/23 06:50:14;;;;;;;5.13;3.22;;;;;;;11.60;86.86;100630.97;4976388;28;96625;-30
2023/04/23 06:52:40;;;;;;;4.93;2.53;;;;;;;11.68;86.12;100641.31;4976452;28;96800;-30
2023/04/23 06:55:06;;;;;;;4.70;2.92;;;;;;;11.76;85.78;100647.06;4977532;28;97413;-30
2023/04/23 06:57:31;;;;;;;3.65;2.33;;;;;;;11.79;84.80;100635.13;4976143;28;100774;-31
2023/04/23 06:59:57;;;;;;;4.25;2.42;;;;;;;11.87;84.91;100638.22;4978000;28;96660;-31
2023/04/23 07:02:22;;;;;;;4.57;2.78;;;;;;;12.02;84.75;100639.84;4977607;28;96699;-30
2023/04/23 07:04:47;;;;;;;4.55;2.63;;;;;;;12.12;84.19;100631.91;4977327;28;99685;-30
2023/04/23 07:07:13;;;;;;;3.70;2.15;;;;;;;12.24;84.09;100641.88;4977434;28;97884;-30
2023/04/23 07:09:38;;;;;;;4.47;2.75;;;;;;;12.30;82.87;100633.28;4977182;28;96560;-30
2023/04/23 07:12:03;;;;;;;5.97;2.78;;;;;;;12.44;82.60;100636.84;4977233;28;96885;-32
2023/04/23 07:14:29;;;;;;;5.00;2.83;;;;;;;12.63;82.36;100629.09;4977322;28;97928;-31
2023/04/23 07:16:54;;;;;;;5.00;2.97;;;;;;;12.82;82.76;100630.44;4977127;28;97329;-31
2023/04/23 07:19:20;;;;;;;4.18;2.42;;;;;;;13.04;81.50;100625.13;4977274;28;96658;-30
2023/04/23 07:21:45;;;;;;;5.38;2.78;;;;;;;13.18;81.10;100627.69;4977566;28;96777;-32
2023/04/23 07:24:10;;;;;;;3.88;2.28;;;;;;;13.27;80.55;100622.50;4977158;28;106271;-30
2023/04/23 07:26:36;;;;;;;5.07;2.63;;;;;;;13.38;80.42;100628.03;4977489;28;100336;-30
2023/04/23 07:29:03;;;;;;;4.57;2.47;;;;;;;13.40;79.77;100612.47;4977529;28;96620;-30
2023/04/23 07:31:28;;;;;;;6.18;2.45;;;;;;;13.53;79.21;100615.09;4977067;28;96918;-30
2023/04/23 07:33:55;;;;;;;4.72;2.72;;;;;;;13.60;78.84;100619.06;4975934;28;97401;-31
2023/04/23 07:36:20;;;;;;;5.75;3.05;;;;;;;13.79;78.48;100623.94;4975477;28;101238;-33
2023/04/23 07:38:45;;;;;;;2.92;1.80;;;;;;;13.84;76.91;100604.50;4977293;28;96532;-31
2023/04/23 07:41:11;;;;;;;5.50;2.53;;;;;;;13.87;76.95;100610.59;4977217;28;96734;-31
2023/04/23 07:43:37;;;;;;;3.95;2.25;;;;;;;14.22;78.21;100623.22;4976783;28;99436;-30
2023/04/23 07:46:03;;;;;;;4.13;2.42;;;;;;;14.38;77.42;100620.16;4975101;28;100576;-31
2023/04/23 07:48:29;;;;;;;6.28;2.75;;;;;;;14.63;76.40;100625.38;4977104;28;96718;-30
2023/04/23 07:50:55;;;;;;;4.72;2.30;;;;;;;14.71;75.62;100610.25;4976952;28;96874;-30
2023/04/23 07:53:20;;;;;;;3.13;2.03;;;;;;;14.60;74.94;100609.25;4976564;28;97352;-30
2023/04/23 07:55:46;;;;;;;2.95;1.98;;;;;;;14.63;75.24;100614.47;4976695;28;97877;-31
2023/04/23 07:58:11;;;;;;;5.18;2.28;;;;;;;14.84;75.33;100609.06;4975244;28;96533;-30
2023/04/23 08:00:36;;;;;;;6.80;2.53;;;;;;;15.03;74.48;100602.94;4976607;28;96847;-31
2023/04/23 08:03:02;;;;;;;4.78;2.17;;;;;;;15.11;73.40;100593.22;4976467;28;98223;-30
2023/04/23 08:05:27;;;;;;;2.58;1.45;;;;;;;15.01;71.85;100588.56;4976588;28;97955;-32
2023/04/23 08:07:52;;;;;;;7.07;2.13;;;;;;;15.00;71.57;100586.84;4976764;28;96618;-30
2023/04/23 08:10:18;;;;;;;4.25;1.98;;;;;;;15.16;73.00;100596.44;4976733;28;96867;-30
2023/04/23 08:12:43;;;;;;;6.10;2.38;;;;;;;15.22;71.06;100590.47;4976055;28;99224;-30
2023/04/23 08:15:09;;;;;;;5.03;2.28;;;;;;;15.46;71.70;100582.03;4976659;28;97288;-30
2023/04/23 08:17:35;;;;;;;6.30;2.53;;;;;;;15.53;70.40;100588.69;4976308;28;96627;-29
2023/04/23 08:20:05;;;;;;;4.53;2.00;;;;;;;15.72;71.97;100590.72;4976298;28;96856;-30
2023/04/23 08:22:31;;;;;;;4.40;1.92;;;;;;;15.91;70.83;100585.38;4974223;28;100968;-31
2023/04/23 08:24:56;;;;;;;6.93;2.40;;;;;;;15.81;70.78;100580.88;4974810;28;100988;-29
2023/04/23 08:27:21;;;;;;;6.68;2.15;;;;;;;15.96;70.07;100579.50;4976367;28;96590;-31
2023/04/23 08:29:47;;;;;;;11.50;2.53;;;;;;;15.91;68.76;100585.38;4975970;28;99640;-31
2023/04/23 08:32:12;;;;;;;6.88;2.40;;;;;;;15.98;69.78;100582.09;4975853;28;105213;-29
2023/04/23 08:34:37;;;;;;;3.70;1.60;;;;;;;15.84;68.10;100589.63;4975364;28;100324;-30
2023/04/23 08:37:03;;;;;;;4.95;2.30;;;;;;;16.00;69.51;100585.56;4976604;28;96656;-31
2023/04/23 08:39:31;;;;;;;5.70;1.98;;;;;;;16.06;69.43;100601.41;4976661;28;96774;-32
2023/04/23 08:42:28;;;;;;;3.80;2.10;;;;;;;16.13;67.60;100592.50;4974365;28;99404;-30
2023/04/23 08:44:54;;;;;;;3.50;1.73;;;;;;;16.24;69.16;100594.31;4991012;28;97323;-30
2023/04/23 08:47:24;;;;;;;5.70;2.22;;;;;;;16.54;69.15;100587.06;4975650;28;97774;-30
2023/04/23 08:49:53;;;;;;;3.67;1.55;;;;;;;16.43;66.82;100587.19;4974595;28;96927;-30
2023/04/23 08:52:24;;;;;;;5.18;2.65;;;;;;;16.47;67.82;100589.50;4974103;28;100899;-30
2023/04/23 08:54:52;;;;;;;6.40;1.83;;;;;;;16.42;68.22;100600.00;4974238;28;98938;-30
2023/04/23 08:57:18;;;;;;;5.45;1.73;;;;;;;16.51;68.81;100601.03;4975957;28;96540;-30
2023/04/23 08:59:45;;;;;;;5.55;1.98;;;;;;;16.69;67.71;100593.03;4975827;28;96872;-29
2023/04/23 09:02:10;;;;;;;4.40;1.60;;;;;;;16.82;66.89;100595.50;4973943;28;100883;-31
2023/04/23 09:04:37;;;;;;;5.35;1.73;;;;;;;16.77;67.07;100590.44;4975771;28;99440;-32
2023/04/23 09:07:03;;;;;;;2.80;1.48;;;;;;;16.43;65.94;100588.03;4974462;28;96763;-30
2023/04/23 09:09:29;;;;;;;4.32;1.63;;;;;;;16.30;67.03;100595.63;4973694;28;96842;-31
2023/04/23 09:11:56;;;;;;;3.47;1.70;;;;;;;16.21;67.42;100591.84;4973603;28;100974;-30
2023/04/23 09:14:25;;;;;;;2.60;1.17;;;;;;;16.38;65.98;100584.88;4973830;28;100724;-30
2023/04/23 09:16:51;;;;;;;4.00;1.45;;;;;;;16.55;65.42;100578.72;4974339;28;96598;-30
2023/04/23 09:19:17;;;;;;;3.30;1.77;;;;;;;16.33;65.91;100582.56;4974264;28;96873;-30
2023/04/23 09:21:44;;;;;;;3.05;1.35;;;;;;;16.18;64.89;100580.31;4957404;28;100808;-31
2023/04/23 09:24:10;;;;;;;6.25;2.22;;;;;;;16.31;66.57;100578.22;4973621;28;100719;-33
2023/04/23 09:26:44;;;;;;;4.03;1.73;;;;;;;16.27;65.24;100574.03;4975657;28;96555;-30
2023/04/23 09:29:22;;;;;;;6.38;1.73;;;;;;;16.23;65.93;100573.47;4974470;28;97288;-31
2023/04/23 09:31:54;;;;;;;4.70;1.80;;;;;;;16.30;65.55;100577.38;4973745;28;101428;-32
2023/04/23 09:34:22;;;;;;;3.13;1.85;;;;;;;16.42;64.76;100574.50;4973048;28;99088;-30
2023/04/23 09:36:49;;;;;;;2.92;1.92;;;;;;;16.51;64.81;100569.06;4973476;28;96577;-30
2023/04/23 09:39:17;;;;;;;8.02;2.28;;;;;;;16.53;65.46;100569.78;4973849;28;96857;-30
2023/04/23 09:41:44;;;;;;;3.83;1.98;;;;;;;16.61;65.30;100568.22;4973439;28;101525;-31
2023/04/23 09:44:11;;;;;;;9.20;2.15;;;;;;;16.69;65.19;100563.78;4974809;28;99520;-29
2023/04/23 09:46:41;;;;;;;6.32;2.00;;;;;;;16.68;65.51;100567.50;4975193;28;96574;-30
2023/04/23 09:49:09;;;;;;;6.18;2.10;;;;;;;16.94;65.25;100561.53;4974902;28;96928;-29
2023/04/23 09:51:39;;;;;;;5.82;2.03;;;;;;;16.93;64.75;100557.09;4974592;28;99011;-30
2023/04/23 09:54:25;;;;;;;4.35;1.83;;;;;;;16.94;64.87;100554.19;4973845;28;100929;-30
2023/04/23 09:56:55;;;;;;;3.03;1.77;;;;;;;16.91;63.63;100546.28;4974876;28;96629;-30
2023/04/23 09:59:26;;;;;;;3.70;2.17;;;;;;;16.89;64.57;100548.28;4973369;28;96770;-30
2023/04/23 10:01:52;;;;;;;7.30;1.67;;;;;;;16.88;64.62;100548.44;4974002;28;99599;-30
2023/04/23 10:04:24;;;;;;;5.70;1.80;;;;;;;16.67;63.51;100554.00;4974541;28;99251;-30
2023/04/23 10:06:57;;;;;;;4.03;1.73;;;;;;;16.54;65.21;100541.47;4973617;28;96654;-30
2023/04/23 10:09:24;;;;;;;1.88;1.30;;;;;;;16.68;64.73;100542.03;4974645;28;96881;-30
2023/04/23 10:11:55;;;;;;;2.80;1.77;;;;;;;16.72;64.23;100546.22;4973262;28;100958;-30
2023/04/23 10:14:21;;;;;;;2.60;1.30;;;;;;;16.66;63.08;100538.59;4973188;28;99962;-31
2023/04/23 10:16:50;;;;;;;4.90;1.42;;;;;;;16.63;62.68;100538.88;4957376;28;96521;-32
2023/04/23 10:19:21;;;;;;;5.05;1.38;;;;;;;16.68;64.12;100536.56;4973922;28;96848;-30
2023/04/23 10:21:52;;;;;;;2.50;1.30;;;;;;;16.67;64.16;100535.72;4959371;28;101178;-30
2023/04/23 10:24:20;;;;;;;4.00;1.38;;;;;;;16.61;64.37;100533.53;4977741;28;99453;-30
2023/04/23 10:26:46;;;;;;;1.83;1.08;;;;;;;16.42;62.38;100528.91;4976328;28;96701;-31
2023/04/23 10:29:15;;;;;;;2.47;1.20;;;;;;;16.34;62.86;100536.94;4976992;28;96829;-30
2023/04/23 10:31:41;;;;;;;6.18;1.30;;;;;;;16.10;63.16;100529.94;4977575;28;99350;-30
2023/04/23 10:34:10;;;;;;;2.60;1.15;;;;;;;16.04;64.16;100514.13;4977504;28;98884;-30
2023/04/23 10:36:37;;;;;;;1.48;1.00;;;;;;;16.08;64.42;100521.03;4976665;28;96633;-31
2023/04/23 10:39:06;;;;;;;4.47;1.13;;;;;;;16.10;63.84;100512.69;4976534;28;96897;-30
2023/04/23 10:41:42;;;;;;;4.47;1.00;;;;;;;15.93;62.52;100516.94;4976324;28;101283;-30
2023/04/23 10:44:12;;;;;;;3.97;1.35;;;;;;;15.93;63.57;100514.22;4976698;28;100856;-30
2023/04/23 10:46:38;;;;;;;2.83;0.93;;;;;;;16.05;64.65;100502.19;4976520;28;96780;-30
2023/04/23 10:49:14;;;;;;;2.75;0.98;;;;;;;16.26;63.60;100502.09;4978011;28;96865;-31
2023/04/23 10:51:41;;;;;;;1.42;0.80;;;;;;;16.33;63.47;100499.69;4976657;28;99671;-30
2023/04/23 10:54:09;;;;;;;1.67;0.90;;;;;;;16.23;63.11;100493.31;4976225;28;100413;-30
2023/04/23 10:56:40;;;;;;;0.80;0.68;;;;;;;15.99;61.40;100494.53;4976478;28;96536;-30
2023/04/23 10:59:28;;;;;;;2.97;0.98;;;;;;;15.95;63.30;100479.44;4977260;28;96858;-30
2023/04/23 11:01:57;;;;;;;1.75;0.93;;;;;;;16.02;64.30;100487.94;4975877;28;100990;-30
2023/04/23 11:04:27;;;;;;;2.05;0.85;;;;;;;15.96;62.87;100486.63;4977186;28;98299;-30
2023/04/23 11:07:02;;;;;;;2.13;1.02;;;;;;;15.91;63.71;100480.72;4977886;28;96649;-30
2023/04/23 11:09:38;;;;;;;5.57;1.30;;;;;;;15.96;63.53;100475.69;4976759;28;96729;-30
2023/04/23 11:12:31;;;;;;;5.22;0.90;;;;;;;16.13;63.49;100479.63;4975915;28;101263;-30
2023/04/23 11:15:00;;;;;;;4.43;1.20;;;;;;;16.14;63.14;100467.69;4975811;28;100816;-31
2023/04/23 11:17:31;;;;;;;2.75;0.68;;;;;;;16.21;63.50;100465.25;4977045;28;96584;-31
2023/04/23 11:20:12;;;;;;;1.87;0.63;;;;;;;16.23;63.16;100461.41;4977726;28;96840;-31
2023/04/23 11:22:42;;;;;;;7.57;0.93;;;;;;;16.19;62.23;100456.34;4975639;28;101112;-30
2023/04/23 11:25:10;;;;;;;2.25;0.65;;;;;;;16.22;62.92;100442.41;4975583;28;100801;-30